sensor_id;sensor_type;location;lat;lon;timestamp;P1;durP1;ratioP1;P2;durP2;ratioP2
25409;SDS011;13339;50.840;4.346;2023-04-06T00:01:48;24.33;;;12.87;;
25409;SDS011;13339;50.840;4.346;2023-04-06T00:04:13;23.63;;;12.13;;
25409;SDS011;13339;50.840;4.346;2023-04-06T00:06:39;22.27;;;12.43;;
25409;SDS011;13339;50.840;4.346;2023-04-06T00:09:05;25.93;;;14.00;;
25409;SDS011;13339;50.840;4.346;2023-04-06T00:11:30;22.77;;;12.93;;
25409;SDS011;13339;50.840;4.346;2023-04-06T00:13:56;21.77;;;12.80;;
25409;SDS011;13339;50.840;4.346;2023-04-06T00:16:22;24.50;;;13.37;;
25409;SDS011;13339;50.840;4.346;2023-04-06T00:18:47;25.23;;;13.33;;
25409;SDS011;13339;50.840;4.346;2023-04-06T00:21:13;23.23;;;13.50;;
25409;SDS011;13339;50.840;4.346;2023-04-06T00:23:39;24.13;;;12.90;;
25409;SDS011;13339;50.840;4.346;2023-04-06T00:26:06;22.40;;;12.80;;
25409;SDS011;13339;50.840;4.346;2023-04-06T00:28:31;22.83;;;12.90;;
25409;SDS011;13339;50.840;4.346;2023-04-06T00:30:57;22.10;;;13.37;;
25409;SDS011;13339;50.840;4.346;2023-04-06T00:33:22;26.07;;;13.87;;
25409;SDS011;13339;50.840;4.346;2023-04-06T00:35:49;19.27;;;13.07;;
25409;SDS011;13339;50.840;4.346;2023-04-06T00:38:15;20.80;;;11.73;;
25409;SDS011;13339;50.840;4.346;2023-04-06T00:40:41;23.30;;;13.33;;
25409;SDS011;13339;50.840;4.346;2023-04-06T00:43:09;28.13;;;13.13;;
25409;SDS011;13339;50.840;4.346;2023-04-06T00:45:36;21.13;;;13.37;;
25409;SDS011;13339;50.840;4.346;2023-04-06T00:48:03;22.07;;;13.43;;
25409;SDS011;13339;50.840;4.346;2023-04-06T00:50:30;20.20;;;13.10;;
25409;SDS011;13339;50.840;4.346;2023-04-06T00:52:55;21.63;;;13.23;;
25409;SDS011;13339;50.840;4.346;2023-04-06T00:55:21;21.73;;;12.93;;
25409;SDS011;13339;50.840;4.346;2023-04-06T00:57:47;26.70;;;13.73;;
25409;SDS011;13339;50.840;4.346;2023-04-06T01:00:13;18.53;;;12.57;;
25409;SDS011;13339;50.840;4.346;2023-04-06T01:02:40;21.20;;;13.17;;
25409;SDS011;13339;50.840;4.346;2023-04-06T01:05:05;21.33;;;13.43;;
25409;SDS011;13339;50.840;4.346;2023-04-06T01:07:31;24.23;;;12.90;;
25409;SDS011;13339;50.840;4.346;2023-04-06T01:09:57;21.70;;;13.33;;
25409;SDS011;13339;50.840;4.346;2023-04-06T01:12:23;21.40;;;13.33;;
25409;SDS011;13339;50.840;4.346;2023-04-06T01:14:49;23.20;;;13.47;;
25409;SDS011;13339;50.840;4.346;2023-04-06T01:17:15;25.33;;;14.23;;
25409;SDS011;13339;50.840;4.346;2023-04-06T01:19:40;24.13;;;13.83;;
25409;SDS011;13339;50.840;4.346;2023-04-06T01:22:06;22.03;;;14.07;;
25409;SDS011;13339;50.840;4.346;2023-04-06T01:24:32;27.97;;;15.03;;
25409;SDS011;13339;50.840;4.346;2023-04-06T01:26:58;24.43;;;14.40;;
25409;SDS011;13339;50.840;4.346;2023-04-06T01:29:25;22.53;;;14.13;;
25409;SDS011;13339;50.840;4.346;2023-04-06T01:31:51;25.70;;;14.67;;
25409;SDS011;13339;50.840;4.346;2023-04-06T01:34:16;27.00;;;14.33;;
25409;SDS011;13339;50.840;4.346;2023-04-06T01:36:42;28.97;;;15.57;;
25409;SDS011;13339;50.840;4.346;2023-04-06T01:39:08;28.70;;;15.13;;
25409;SDS011;13339;50.840;4.346;2023-04-06T01:41:33;30.00;;;15.47;;
25409;SDS011;13339;50.840;4.346;2023-04-06T01:43:59;24.43;;;14.07;;
25409;SDS011;13339;50.840;4.346;2023-04-06T01:46:25;26.67;;;15.63;;
25409;SDS011;13339;50.840;4.346;2023-04-06T01:48:51;24.07;;;15.00;;
25409;SDS011;13339;50.840;4.346;2023-04-06T01:51:17;25.77;;;14.03;;
25409;SDS011;13339;50.840;4.346;2023-04-06T01:53:42;30.97;;;15.63;;
25409;SDS011;13339;50.840;4.346;2023-04-06T01:56:08;23.40;;;14.17;;
25409;SDS011;13339;50.840;4.346;2023-04-06T01:58:34;24.20;;;15.00;;
25409;SDS011;13339;50.840;4.346;2023-04-06T02:01:00;27.47;;;16.10;;
25409;SDS011;13339;50.840;4.346;2023-04-06T02:03:25;25.87;;;15.93;;
25409;SDS011;13339;50.840;4.346;2023-04-06T02:05:51;27.77;;;15.40;;
25409;SDS011;13339;50.840;4.346;2023-04-06T02:08:17;24.27;;;15.17;;
25409;SDS011;13339;50.840;4.346;2023-04-06T02:10:42;25.13;;;15.37;;
25409;SDS011;13339;50.840;4.346;2023-04-06T02:13:08;26.17;;;15.47;;
25409;SDS011;13339;50.840;4.346;2023-04-06T02:15:34;24.47;;;15.37;;
25409;SDS011;13339;50.840;4.346;2023-04-06T02:17:59;22.67;;;14.43;;
25409;SDS011;13339;50.840;4.346;2023-04-06T02:20:25;26.67;;;15.53;;
25409;SDS011;13339;50.840;4.346;2023-04-06T02:22:51;25.17;;;15.30;;
25409;SDS011;13339;50.840;4.346;2023-04-06T02:25:17;27.27;;;14.87;;
25409;SDS011;13339;50.840;4.346;2023-04-06T02:27:42;21.70;;;14.27;;
25409;SDS011;13339;50.840;4.346;2023-04-06T02:30:08;23.37;;;15.03;;
25409;SDS011;13339;50.840;4.346;2023-04-06T02:32:34;25.53;;;14.83;;
25409;SDS011;13339;50.840;4.346;2023-04-06T02:35:00;26.93;;;14.93;;
25409;SDS011;13339;50.840;4.346;2023-04-06T02:37:26;22.07;;;14.63;;
25409;SDS011;13339;50.840;4.346;2023-04-06T02:39:52;26.80;;;14.80;;
25409;SDS011;13339;50.840;4.346;2023-04-06T02:42:17;25.53;;;15.57;;
25409;SDS011;13339;50.840;4.346;2023-04-06T02:44:43;26.97;;;15.37;;
25409;SDS011;13339;50.840;4.346;2023-04-06T02:47:09;23.90;;;14.53;;
25409;SDS011;13339;50.840;4.346;2023-04-06T02:49:35;20.80;;;14.23;;
25409;SDS011;13339;50.840;4.346;2023-04-06T02:52:01;27.20;;;15.17;;
25409;SDS011;13339;50.840;4.346;2023-04-06T02:54:27;21.43;;;14.77;;
25409;SDS011;13339;50.840;4.346;2023-04-06T02:56:53;23.60;;;14.33;;
25409;SDS011;13339;50.840;4.346;2023-04-06T02:59:18;26.00;;;15.50;;
25409;SDS011;13339;50.840;4.346;2023-04-06T03:01:44;25.23;;;15.60;;
25409;SDS011;13339;50.840;4.346;2023-04-06T03:04:10;23.80;;;14.90;;
25409;SDS011;13339;50.840;4.346;2023-04-06T03:06:36;23.70;;;14.00;;
25409;SDS011;13339;50.840;4.346;2023-04-06T03:09:02;25.80;;;15.00;;
25409;SDS011;13339;50.840;4.346;2023-04-06T03:11:27;25.90;;;16.13;;
25409;SDS011;13339;50.840;4.346;2023-04-06T03:13:53;24.73;;;14.93;;
25409;SDS011;13339;50.840;4.346;2023-04-06T03:16:18;28.17;;;14.50;;
25409;SDS011;13339;50.840;4.346;2023-04-06T03:18:44;23.93;;;14.87;;
25409;SDS011;13339;50.840;4.346;2023-04-06T03:21:11;24.17;;;15.40;;
25409;SDS011;13339;50.840;4.346;2023-04-06T03:23:38;22.80;;;14.67;;
25409;SDS011;13339;50.840;4.346;2023-04-06T03:26:03;24.47;;;14.63;;
25409;SDS011;13339;50.840;4.346;2023-04-06T03:28:29;24.00;;;15.13;;
25409;SDS011;13339;50.840;4.346;2023-04-06T03:30:55;23.47;;;15.63;;
25409;SDS011;13339;50.840;4.346;2023-04-06T03:33:20;25.23;;;15.93;;
25409;SDS011;13339;50.840;4.346;2023-04-06T03:35:46;28.30;;;15.57;;
25409;SDS011;13339;50.840;4.346;2023-04-06T03:38:11;28.40;;;15.47;;
25409;SDS011;13339;50.840;4.346;2023-04-06T03:40:37;22.40;;;15.13;;
25409;SDS011;13339;50.840;4.346;2023-04-06T03:43:03;24.47;;;14.93;;
25409;SDS011;13339;50.840;4.346;2023-04-06T03:45:29;23.23;;;14.97;;
25409;SDS011;13339;50.840;4.346;2023-04-06T03:47:55;25.80;;;14.33;;
25409;SDS011;13339;50.840;4.346;2023-04-06T03:50:21;23.63;;;14.73;;
25409;SDS011;13339;50.840;4.346;2023-04-06T03:52:46;24.13;;;15.40;;
25409;SDS011;13339;50.840;4.346;2023-04-06T03:55:12;24.20;;;15.43;;
25409;SDS011;13339;50.840;4.346;2023-04-06T03:57:37;25.93;;;15.27;;
25409;SDS011;13339;50.840;4.346;2023-04-06T04:00:03;23.50;;;14.40;;
25409;SDS011;13339;50.840;4.346;2023-04-06T04:02:29;25.70;;;15.80;;
25409;SDS011;13339;50.840;4.346;2023-04-06T04:04:55;21.90;;;15.03;;
25409;SDS011;13339;50.840;4.346;2023-04-06T04:07:21;22.60;;;14.20;;
25409;SDS011;13339;50.840;4.346;2023-04-06T04:09:46;27.20;;;15.77;;
25409;SDS011;13339;50.840;4.346;2023-04-06T04:12:12;25.93;;;15.27;;
25409;SDS011;13339;50.840;4.346;2023-04-06T04:14:39;22.00;;;15.50;;
25409;SDS011;13339;50.840;4.346;2023-04-06T04:17:05;24.37;;;15.00;;
25409;SDS011;13339;50.840;4.346;2023-04-06T04:19:30;27.67;;;15.27;;
25409;SDS011;13339;50.840;4.346;2023-04-06T04:21:56;23.23;;;14.50;;
25409;SDS011;13339;50.840;4.346;2023-04-06T04:24:21;23.20;;;14.40;;
25409;SDS011;13339;50.840;4.346;2023-04-06T04:26:47;23.20;;;14.87;;
25409;SDS011;13339;50.840;4.346;2023-04-06T04:29:13;22.80;;;15.30;;
25409;SDS011;13339;50.840;4.346;2023-04-06T04:31:38;31.03;;;15.40;;
25409;SDS011;13339;50.840;4.346;2023-04-06T04:34:04;24.07;;;14.70;;
25409;SDS011;13339;50.840;4.346;2023-04-06T04:36:31;27.03;;;15.33;;
25409;SDS011;13339;50.840;4.346;2023-04-06T04:38:57;30.27;;;15.23;;
25409;SDS011;13339;50.840;4.346;2023-04-06T04:41:23;26.30;;;15.20;;
25409;SDS011;13339;50.840;4.346;2023-04-06T04:43:48;30.50;;;16.03;;
25409;SDS011;13339;50.840;4.346;2023-04-06T04:46:14;23.67;;;15.40;;
25409;SDS011;13339;50.840;4.346;2023-04-06T04:48:40;31.80;;;15.90;;
25409;SDS011;13339;50.840;4.346;2023-04-06T04:51:06;24.70;;;15.67;;
25409;SDS011;13339;50.840;4.346;2023-04-06T04:53:31;26.60;;;15.60;;
25409;SDS011;13339;50.840;4.346;2023-04-06T04:55:57;28.53;;;15.77;;
25409;SDS011;13339;50.840;4.346;2023-04-06T04:58:23;29.47;;;15.37;;
25409;SDS011;13339;50.840;4.346;2023-04-06T05:00:48;23.30;;;15.00;;
25409;SDS011;13339;50.840;4.346;2023-04-06T05:03:18;30.83;;;16.20;;
25409;SDS011;13339;50.840;4.346;2023-04-06T05:05:47;31.30;;;16.50;;
25409;SDS011;13339;50.840;4.346;2023-04-06T05:08:12;26.83;;;16.60;;
25409;SDS011;13339;50.840;4.346;2023-04-06T05:10:38;32.90;;;16.77;;
25409;SDS011;13339;50.840;4.346;2023-04-06T05:13:07;27.37;;;16.67;;
25409;SDS011;13339;50.840;4.346;2023-04-06T05:15:34;32.23;;;15.97;;
25409;SDS011;13339;50.840;4.346;2023-04-06T05:17:59;26.53;;;16.20;;
25409;SDS011;13339;50.840;4.346;2023-04-06T05:20:26;34.23;;;15.83;;
25409;SDS011;13339;50.840;4.346;2023-04-06T05:22:52;28.53;;;16.13;;
25409;SDS011;13339;50.840;4.346;2023-04-06T05:25:18;28.43;;;16.50;;
25409;SDS011;13339;50.840;4.346;2023-04-06T05:27:44;28.60;;;16.83;;
25409;SDS011;13339;50.840;4.346;2023-04-06T05:30:10;26.00;;;15.83;;
25409;SDS011;13339;50.840;4.346;2023-04-06T05:32:36;34.33;;;17.20;;
25409;SDS011;13339;50.840;4.346;2023-04-06T05:35:01;31.87;;;17.73;;
25409;SDS011;13339;50.840;4.346;2023-04-06T05:37:27;33.23;;;16.17;;
25409;SDS011;13339;50.840;4.346;2023-04-06T05:39:53;32.73;;;17.40;;
25409;SDS011;13339;50.840;4.346;2023-04-06T05:42:18;36.93;;;16.63;;
25409;SDS011;13339;50.840;4.346;2023-04-06T05:44:44;35.23;;;17.20;;
25409;SDS011;13339;50.840;4.346;2023-04-06T05:47:10;33.07;;;17.60;;
25409;SDS011;13339;50.840;4.346;2023-04-06T05:49:36;33.33;;;16.80;;
25409;SDS011;13339;50.840;4.346;2023-04-06T05:52:01;37.23;;;18.60;;
25409;SDS011;13339;50.840;4.346;2023-04-06T05:54:27;32.70;;;17.70;;
25409;SDS011;13339;50.840;4.346;2023-04-06T05:56:53;38.83;;;17.50;;
25409;SDS011;13339;50.840;4.346;2023-04-06T05:59:18;35.40;;;17.00;;
25409;SDS011;13339;50.840;4.346;2023-04-06T06:01:45;38.83;;;18.80;;
25409;SDS011;13339;50.840;4.346;2023-04-06T06:04:11;35.47;;;17.87;;
25409;SDS011;13339;50.840;4.346;2023-04-06T06:06:36;40.57;;;18.20;;
25409;SDS011;13339;50.840;4.346;2023-04-06T06:09:02;32.30;;;17.57;;
25409;SDS011;13339;50.840;4.346;2023-04-06T06:11:28;38.23;;;17.97;;
25409;SDS011;13339;50.840;4.346;2023-04-06T06:13:55;36.90;;;19.03;;
25409;SDS011;13339;50.840;4.346;2023-04-06T06:16:21;35.00;;;19.03;;
25409;SDS011;13339;50.840;4.346;2023-04-06T06:18:46;31.73;;;18.20;;
25409;SDS011;13339;50.840;4.346;2023-04-06T06:21:13;36.97;;;18.17;;
25409;SDS011;13339;50.840;4.346;2023-04-06T06:23:39;34.97;;;18.20;;
25409;SDS011;13339;50.840;4.346;2023-04-06T06:26:06;42.23;;;18.17;;
25409;SDS011;13339;50.840;4.346;2023-04-06T06:28:32;33.40;;;18.23;;
25409;SDS011;13339;50.840;4.346;2023-04-06T06:30:58;35.90;;;18.40;;
25409;SDS011;13339;50.840;4.346;2023-04-06T06:33:24;32.87;;;18.37;;
25409;SDS011;13339;50.840;4.346;2023-04-06T06:35:51;41.33;;;18.70;;
25409;SDS011;13339;50.840;4.346;2023-04-06T06:38:17;35.13;;;20.38;;
25409;SDS011;13339;50.840;4.346;2023-04-06T06:40:43;35.17;;;19.30;;
25409;SDS011;13339;50.840;4.346;2023-04-06T06:43:09;34.70;;;18.97;;
25409;SDS011;13339;50.840;4.346;2023-04-06T06:45:35;32.80;;;18.07;;
25409;SDS011;13339;50.840;4.346;2023-04-06T06:48:01;32.00;;;18.13;;
25409;SDS011;13339;50.840;4.346;2023-04-06T06:50:26;26.40;;;18.10;;
25409;SDS011;13339;50.840;4.346;2023-04-06T06:52:52;35.37;;;17.73;;
25409;SDS011;13339;50.840;4.346;2023-04-06T06:55:18;34.33;;;17.40;;
25409;SDS011;13339;50.840;4.346;2023-04-06T06:57:46;37.83;;;19.53;;
25409;SDS011;13339;50.840;4.346;2023-04-06T07:00:12;36.00;;;19.00;;
25409;SDS011;13339;50.840;4.346;2023-04-06T07:02:39;33.93;;;18.63;;
25409;SDS011;13339;50.840;4.346;2023-04-06T07:05:05;28.70;;;17.17;;
25409;SDS011;13339;50.840;4.346;2023-04-06T07:07:34;28.63;;;17.23;;
25409;SDS011;13339;50.840;4.346;2023-04-06T07:10:00;29.97;;;16.67;;
25409;SDS011;13339;50.840;4.346;2023-04-06T07:12:26;29.67;;;16.93;;
25409;SDS011;13339;50.840;4.346;2023-04-06T07:14:52;27.37;;;16.27;;
25409;SDS011;13339;50.840;4.346;2023-04-06T07:17:18;28.07;;;15.90;;
25409;SDS011;13339;50.840;4.346;2023-04-06T07:19:43;30.33;;;16.17;;
25409;SDS011;13339;50.840;4.346;2023-04-06T07:22:10;28.93;;;15.93;;
25409;SDS011;13339;50.840;4.346;2023-04-06T07:24:36;24.47;;;16.00;;
25409;SDS011;13339;50.840;4.346;2023-04-06T07:27:01;21.87;;;15.17;;
25409;SDS011;13339;50.840;4.346;2023-04-06T07:29:27;22.10;;;14.70;;
25409;SDS011;13339;50.840;4.346;2023-04-06T07:31:53;22.00;;;12.67;;
25409;SDS011;13339;50.840;4.346;2023-04-06T07:34:20;19.67;;;13.03;;
25409;SDS011;13339;50.840;4.346;2023-04-06T07:36:45;19.23;;;12.50;;
25409;SDS011;13339;50.840;4.346;2023-04-06T07:39:11;23.47;;;13.40;;
25409;SDS011;13339;50.840;4.346;2023-04-06T07:41:37;21.03;;;13.27;;
25409;SDS011;13339;50.840;4.346;2023-04-06T07:44:03;17.97;;;12.23;;
25409;SDS011;13339;50.840;4.346;2023-04-06T07:46:29;21.10;;;12.33;;
25409;SDS011;13339;50.840;4.346;2023-04-06T07:48:56;18.70;;;11.77;;
25409;SDS011;13339;50.840;4.346;2023-04-06T07:51:22;17.37;;;10.50;;
25409;SDS011;13339;50.840;4.346;2023-04-06T07:53:47;19.17;;;10.83;;
25409;SDS011;13339;50.840;4.346;2023-04-06T07:56:15;14.97;;;10.53;;
25409;SDS011;13339;50.840;4.346;2023-04-06T07:58:40;16.40;;;11.23;;
25409;SDS011;13339;50.840;4.346;2023-04-06T08:01:06;19.50;;;11.33;;
25409;SDS011;13339;50.840;4.346;2023-04-06T08:03:33;16.27;;;10.37;;
25409;SDS011;13339;50.840;4.346;2023-04-06T08:05:59;16.97;;;10.77;;
25409;SDS011;13339;50.840;4.346;2023-04-06T08:08:25;15.93;;;10.47;;
25409;SDS011;13339;50.840;4.346;2023-04-06T08:10:51;15.20;;;10.10;;
25409;SDS011;13339;50.840;4.346;2023-04-06T08:13:16;16.43;;;10.83;;
25409;SDS011;13339;50.840;4.346;2023-04-06T08:15:42;17.20;;;10.93;;
25409;SDS011;13339;50.840;4.346;2023-04-06T08:18:08;14.63;;;10.43;;
25409;SDS011;13339;50.840;4.346;2023-04-06T08:20:34;16.90;;;10.30;;
25409;SDS011;13339;50.840;4.346;2023-04-06T08:23:00;18.37;;;10.33;;
25409;SDS011;13339;50.840;4.346;2023-04-06T08:25:25;16.70;;;10.70;;
25409;SDS011;13339;50.840;4.346;2023-04-06T08:27:51;15.40;;;10.20;;
25409;SDS011;13339;50.840;4.346;2023-04-06T08:30:17;17.00;;;11.17;;
25409;SDS011;13339;50.840;4.346;2023-04-06T08:32:44;17.83;;;10.83;;
25409;SDS011;13339;50.840;4.346;2023-04-06T08:35:10;15.87;;;10.17;;
25409;SDS011;13339;50.840;4.346;2023-04-06T08:37:36;18.93;;;10.50;;
25409;SDS011;13339;50.840;4.346;2023-04-06T08:40:02;15.00;;;11.00;;
25409;SDS011;13339;50.840;4.346;2023-04-06T08:42:31;14.10;;;9.97;;
25409;SDS011;13339;50.840;4.346;2023-04-06T08:44:57;17.00;;;9.80;;
25409;SDS011;13339;50.840;4.346;2023-04-06T08:47:24;13.40;;;9.83;;
25409;SDS011;13339;50.840;4.346;2023-04-06T08:49:49;13.87;;;8.93;;
25409;SDS011;13339;50.840;4.346;2023-04-06T08:52:18;16.33;;;10.30;;
25409;SDS011;13339;50.840;4.346;2023-04-06T08:54:44;19.27;;;10.80;;
25409;SDS011;13339;50.840;4.346;2023-04-06T08:57:21;16.73;;;10.70;;
25409;SDS011;13339;50.840;4.346;2023-04-06T08:59:48;15.73;;;10.57;;
25409;SDS011;13339;50.840;4.346;2023-04-06T09:02:16;17.27;;;10.60;;
25409;SDS011;13339;50.840;4.346;2023-04-06T09:04:44;17.27;;;10.90;;
25409;SDS011;13339;50.840;4.346;2023-04-06T09:07:12;17.80;;;11.20;;
25409;SDS011;13339;50.840;4.346;2023-04-06T09:09:39;19.53;;;10.83;;
25409;SDS011;13339;50.840;4.346;2023-04-06T09:12:08;18.07;;;10.30;;
25409;SDS011;13339;50.840;4.346;2023-04-06T09:14:37;13.10;;;10.10;;
25409;SDS011;13339;50.840;4.346;2023-04-06T09:17:04;18.30;;;10.60;;
25409;SDS011;13339;50.840;4.346;2023-04-06T09:19:30;17.93;;;11.33;;
25409;SDS011;13339;50.840;4.346;2023-04-06T09:22:05;16.37;;;11.50;;
25409;SDS011;13339;50.840;4.346;2023-04-06T09:24:43;17.97;;;11.37;;
25409;SDS011;13339;50.840;4.346;2023-04-06T09:27:11;17.23;;;11.73;;
25409;SDS011;13339;50.840;4.346;2023-04-06T09:29:37;21.00;;;10.43;;
25409;SDS011;13339;50.840;4.346;2023-04-06T09:32:03;15.97;;;11.03;;
25409;SDS011;13339;50.840;4.346;2023-04-06T09:34:30;18.17;;;10.40;;
25409;SDS011;13339;50.840;4.346;2023-04-06T09:36:56;13.40;;;9.53;;
25409;SDS011;13339;50.840;4.346;2023-04-06T09:39:23;14.03;;;9.77;;
25409;SDS011;13339;50.840;4.346;2023-04-06T09:41:52;18.20;;;9.87;;
25409;SDS011;13339;50.840;4.346;2023-04-06T09:44:19;17.60;;;10.23;;
25409;SDS011;13339;50.840;4.346;2023-04-06T09:46:45;14.20;;;10.27;;
25409;SDS011;13339;50.840;4.346;2023-04-06T09:49:12;12.70;;;9.67;;
25409;SDS011;13339;50.840;4.346;2023-04-06T09:51:39;20.07;;;10.43;;
25409;SDS011;13339;50.840;4.346;2023-04-06T09:54:21;15.50;;;9.60;;
25409;SDS011;13339;50.840;4.346;2023-04-06T09:56:50;13.30;;;9.13;;
25409;SDS011;13339;50.840;4.346;2023-04-06T10:02:04;12.77;;;9.20;;
25409;SDS011;13339;50.840;4.346;2023-04-06T10:07:06;13.70;;;10.20;;
25409;SDS011;13339;50.840;4.346;2023-04-06T10:09:34;17.43;;;9.83;;
25409;SDS011;13339;50.840;4.346;2023-04-06T10:12:05;13.83;;;9.13;;
25409;SDS011;13339;50.840;4.346;2023-04-06T10:14:32;12.67;;;9.17;;
25409;SDS011;13339;50.840;4.346;2023-04-06T10:17:01;12.40;;;9.00;;
25409;SDS011;13339;50.840;4.346;2023-04-06T10:19:31;12.00;;;8.70;;
25409;SDS011;13339;50.840;4.346;2023-04-06T10:22:22;14.73;;;9.30;;
25409;SDS011;13339;50.840;4.346;2023-04-06T10:24:54;12.03;;;9.10;;
25409;SDS011;13339;50.840;4.346;2023-04-06T10:27:29;15.30;;;9.50;;
25409;SDS011;13339;50.840;4.346;2023-04-06T10:30:00;11.80;;;8.50;;
25409;SDS011;13339;50.840;4.346;2023-04-06T10:35:07;15.60;;;9.83;;
25409;SDS011;13339;50.840;4.346;2023-04-06T10:37:49;12.30;;;9.17;;
25409;SDS011;13339;50.840;4.346;2023-04-06T10:40:22;12.80;;;9.80;;
25409;SDS011;13339;50.840;4.346;2023-04-06T10:42:49;13.90;;;9.77;;
25409;SDS011;13339;50.840;4.346;2023-04-06T10:45:19;16.30;;;9.90;;
25409;SDS011;13339;50.840;4.346;2023-04-06T10:47:56;14.77;;;10.03;;
25409;SDS011;13339;50.840;4.346;2023-04-06T10:50:22;14.53;;;9.87;;
25409;SDS011;13339;50.840;4.346;2023-04-06T10:52:58;13.60;;;9.80;;
25409;SDS011;13339;50.840;4.346;2023-04-06T10:55:25;14.03;;;10.40;;
25409;SDS011;13339;50.840;4.346;2023-04-06T10:57:52;15.20;;;9.77;;
25409;SDS011;13339;50.840;4.346;2023-04-06T11:00:18;14.83;;;10.03;;
25409;SDS011;13339;50.840;4.346;2023-04-06T11:02:44;14.43;;;10.30;;
25409;SDS011;13339;50.840;4.346;2023-04-06T11:05:11;14.03;;;10.37;;
25409;SDS011;13339;50.840;4.346;2023-04-06T11:07:38;14.13;;;10.33;;
25409;SDS011;13339;50.840;4.346;2023-04-06T11:10:05;17.43;;;10.60;;
25409;SDS011;13339;50.840;4.346;2023-04-06T11:12:32;17.23;;;11.23;;
25409;SDS011;13339;50.840;4.346;2023-04-06T11:14:58;14.80;;;9.47;;
25409;SDS011;13339;50.840;4.346;2023-04-06T11:17:34;13.87;;;10.37;;
25409;SDS011;13339;50.840;4.346;2023-04-06T11:20:02;17.23;;;11.13;;
25409;SDS011;13339;50.840;4.346;2023-04-06T11:22:28;15.50;;;10.87;;
25409;SDS011;13339;50.840;4.346;2023-04-06T11:25:07;17.77;;;11.20;;
25409;SDS011;13339;50.840;4.346;2023-04-06T11:27:33;15.87;;;10.60;;
25409;SDS011;13339;50.840;4.346;2023-04-06T11:30:00;14.73;;;10.60;;
25409;SDS011;13339;50.840;4.346;2023-04-06T11:32:26;18.50;;;11.50;;
25409;SDS011;13339;50.840;4.346;2023-04-06T11:34:52;15.07;;;10.37;;
25409;SDS011;13339;50.840;4.346;2023-04-06T11:37:17;14.90;;;11.03;;
25409;SDS011;13339;50.840;4.346;2023-04-06T11:39:46;16.97;;;10.37;;
25409;SDS011;13339;50.840;4.346;2023-04-06T11:44:50;16.60;;;11.30;;
25409;SDS011;13339;50.840;4.346;2023-04-06T11:47:17;16.13;;;10.77;;
25409;SDS011;13339;50.840;4.346;2023-04-06T11:49:43;18.07;;;11.77;;
25409;SDS011;13339;50.840;4.346;2023-04-06T11:52:17;18.03;;;11.50;;
25409;SDS011;13339;50.840;4.346;2023-04-06T11:54:42;16.23;;;11.77;;
25409;SDS011;13339;50.840;4.346;2023-04-06T11:57:08;16.80;;;11.30;;
25409;SDS011;13339;50.840;4.346;2023-04-06T11:59:34;18.73;;;11.63;;
25409;SDS011;13339;50.840;4.346;2023-04-06T12:02:03;16.67;;;11.50;;
25409;SDS011;13339;50.840;4.346;2023-04-06T12:04:29;16.13;;;11.73;;
25409;SDS011;13339;50.840;4.346;2023-04-06T12:06:56;16.23;;;11.17;;
25409;SDS011;13339;50.840;4.346;2023-04-06T12:09:22;15.30;;;11.23;;
25409;SDS011;13339;50.840;4.346;2023-04-06T12:11:48;18.60;;;12.37;;
25409;SDS011;13339;50.840;4.346;2023-04-06T12:14:14;19.27;;;11.50;;
25409;SDS011;13339;50.840;4.346;2023-04-06T12:16:40;14.67;;;11.10;;
25409;SDS011;13339;50.840;4.346;2023-04-06T12:19:05;15.20;;;11.10;;
25409;SDS011;13339;50.840;4.346;2023-04-06T12:21:31;17.47;;;10.80;;
25409;SDS011;13339;50.840;4.346;2023-04-06T12:24:02;13.60;;;10.70;;
25409;SDS011;13339;50.840;4.346;2023-04-06T12:26:29;14.30;;;10.90;;
25409;SDS011;13339;50.840;4.346;2023-04-06T12:28:55;14.70;;;11.00;;
25409;SDS011;13339;50.840;4.346;2023-04-06T12:31:21;15.93;;;10.77;;
25409;SDS011;13339;50.840;4.346;2023-04-06T12:33:50;16.00;;;10.93;;
25409;SDS011;13339;50.840;4.346;2023-04-06T12:36:17;17.50;;;11.60;;
25409;SDS011;13339;50.840;4.346;2023-04-06T12:38:46;15.93;;;11.13;;
25409;SDS011;13339;50.840;4.346;2023-04-06T12:41:12;14.30;;;11.30;;
25409;SDS011;13339;50.840;4.346;2023-04-06T12:43:40;17.77;;;11.50;;
25409;SDS011;13339;50.840;4.346;2023-04-06T12:46:06;15.50;;;11.73;;
25409;SDS011;13339;50.840;4.346;2023-04-06T12:48:32;15.20;;;11.37;;
25409;SDS011;13339;50.840;4.346;2023-04-06T12:50:59;15.57;;;11.40;;
25409;SDS011;13339;50.840;4.346;2023-04-06T12:53:25;15.20;;;10.90;;
25409;SDS011;13339;50.840;4.346;2023-04-06T12:55:53;15.87;;;11.07;;
25409;SDS011;13339;50.840;4.346;2023-04-06T12:58:19;16.63;;;11.37;;
25409;SDS011;13339;50.840;4.346;2023-04-06T13:00:46;16.43;;;11.30;;
25409;SDS011;13339;50.840;4.346;2023-04-06T13:03:15;14.27;;;10.63;;
25409;SDS011;13339;50.840;4.346;2023-04-06T13:05:44;13.57;;;10.97;;
25409;SDS011;13339;50.840;4.346;2023-04-06T13:08:10;16.43;;;11.63;;
25409;SDS011;13339;50.840;4.346;2023-04-06T13:10:36;17.47;;;11.30;;
25409;SDS011;13339;50.840;4.346;2023-04-06T13:13:02;17.20;;;11.90;;
25409;SDS011;13339;50.840;4.346;2023-04-06T13:15:28;17.40;;;11.20;;
25409;SDS011;13339;50.840;4.346;2023-04-06T13:17:53;14.93;;;11.30;;
25409;SDS011;13339;50.840;4.346;2023-04-06T13:20:19;18.07;;;11.97;;
25409;SDS011;13339;50.840;4.346;2023-04-06T13:22:45;17.27;;;11.43;;
25409;SDS011;13339;50.840;4.346;2023-04-06T13:25:11;16.47;;;11.90;;
25409;SDS011;13339;50.840;4.346;2023-04-06T13:27:36;16.77;;;11.90;;
25409;SDS011;13339;50.840;4.346;2023-04-06T13:30:03;15.87;;;11.93;;
25409;SDS011;13339;50.840;4.346;2023-04-06T13:32:29;13.13;;;10.57;;
25409;SDS011;13339;50.840;4.346;2023-04-06T13:34:55;16.83;;;11.93;;
25409;SDS011;13339;50.840;4.346;2023-04-06T13:37:21;16.60;;;12.07;;
25409;SDS011;13339;50.840;4.346;2023-04-06T13:39:47;17.57;;;13.17;;
25409;SDS011;13339;50.840;4.346;2023-04-06T13:42:12;15.30;;;11.97;;
25409;SDS011;13339;50.840;4.346;2023-04-06T13:44:38;16.33;;;12.20;;
25409;SDS011;13339;50.840;4.346;2023-04-06T13:47:04;21.03;;;12.93;;
25409;SDS011;13339;50.840;4.346;2023-04-06T13:49:30;18.27;;;12.57;;
25409;SDS011;13339;50.840;4.346;2023-04-06T13:51:56;15.77;;;11.60;;
25409;SDS011;13339;50.840;4.346;2023-04-06T13:54:22;14.03;;;12.03;;
25409;SDS011;13339;50.840;4.346;2023-04-06T13:56:47;16.27;;;11.77;;
25409;SDS011;13339;50.840;4.346;2023-04-06T13:59:13;15.87;;;12.03;;
25409;SDS011;13339;50.840;4.346;2023-04-06T14:01:38;24.90;;;12.80;;
25409;SDS011;13339;50.840;4.346;2023-04-06T14:04:04;18.30;;;12.00;;
25409;SDS011;13339;50.840;4.346;2023-04-06T14:06:30;15.87;;;12.47;;
25409;SDS011;13339;50.840;4.346;2023-04-06T14:08:55;15.87;;;12.43;;
25409;SDS011;13339;50.840;4.346;2023-04-06T14:11:21;18.83;;;12.10;;
25409;SDS011;13339;50.840;4.346;2023-04-06T14:13:47;17.03;;;12.63;;
25409;SDS011;13339;50.840;4.346;2023-04-06T14:16:13;20.33;;;13.33;;
25409;SDS011;13339;50.840;4.346;2023-04-06T14:18:38;15.13;;;12.40;;
25409;SDS011;13339;50.840;4.346;2023-04-06T14:21:04;18.83;;;12.73;;
25409;SDS011;13339;50.840;4.346;2023-04-06T14:23:30;16.87;;;12.97;;
25409;SDS011;13339;50.840;4.346;2023-04-06T14:26:06;17.93;;;13.83;;
25409;SDS011;13339;50.840;4.346;2023-04-06T14:28:33;18.07;;;13.13;;
25409;SDS011;13339;50.840;4.346;2023-04-06T14:30:59;17.33;;;13.13;;